createdAt,value
2023-04-16T00:00:40.912Z,77.09
2023-04-16T00:01:37.869Z,78.11
2023-04-16T00:02:34.753Z,76.35
2023-04-16T00:03:31.816Z,76.41
2023-04-16T00:04:28.773Z,77.20
2023-04-16T00:05:25.613Z,77.31
2023-04-16T00:06:23.377Z,78.62
2023-04-16T00:07:20.077Z,78.55
2023-04-16T00:08:16.989Z,77.94
2023-04-16T00:09:13.728Z,76.80
2023-04-16T00:10:10.790Z,76.17
2023-04-16T00:11:07.715Z,77.26
2023-04-16T00:12:05.080Z,76.66
2023-04-16T00:13:02.000Z,77.26
2023-04-16T00:13:58.977Z,76.98
2023-04-16T00:14:55.711Z,76.00
2023-04-16T00:15:52.520Z,75.70
2023-04-16T00:16:49.363Z,78.07
2023-04-16T00:17:46.281Z,78.86
2023-04-16T00:18:43.143Z,78.88
2023-04-16T00:19:39.862Z,79.85
2023-04-16T00:20:36.597Z,80.14
2023-04-16T00:21:33.403Z,81.00
2023-04-16T00:22:30.152Z,82.98
2023-04-16T00:23:26.994Z,82.48
2023-04-16T00:24:23.737Z,82.77
2023-04-16T00:25:20.793Z,83.07
2023-04-16T00:26:17.509Z,81.38
2023-04-16T00:27:14.340Z,81.94
2023-04-16T00:28:11.237Z,80.54
2023-04-16T00:29:08.376Z,81.94
2023-04-16T00:30:06.838Z,81.75
2023-04-16T00:31:03.794Z,81.89
2023-04-16T00:32:00.742Z,81.90
2023-04-16T00:32:57.513Z,82.71
2023-04-16T00:33:54.327Z,82.56
2023-04-16T00:34:51.064Z,83.46
2023-04-16T00:35:48.802Z,82.69
2023-04-16T00:36:45.535Z,82.21
2023-04-16T00:37:42.307Z,80.37
2023-04-16T00:38:39.519Z,80.07
2023-04-16T00:39:36.311Z,79.97
2023-04-16T00:40:33.070Z,80.07
2023-04-16T00:41:29.864Z,80.35
2023-04-16T00:42:27.409Z,80.75
2023-04-16T00:43:26.102Z,80.91
2023-04-16T00:44:22.867Z,81.31
2023-04-16T00:45:19.607Z,80.07
2023-04-16T00:46:19.126Z,79.61
2023-04-16T00:47:16.721Z,79.57
2023-04-16T00:48:13.459Z,79.56
2023-04-16T00:49:10.772Z,79.09
2023-04-16T00:50:08.121Z,78.02
2023-04-16T00:51:06.507Z,79.44
2023-04-16T00:52:03.468Z,79.02
2023-04-16T00:53:02.160Z,81.22
2023-04-16T00:53:59.138Z,82.69
2023-04-16T00:54:56.561Z,84.22
2023-04-16T00:55:53.852Z,85.83
2023-04-16T00:56:51.592Z,84.65
2023-04-16T00:57:48.315Z,85.76
2023-04-16T00:58:45.181Z,87.18
2023-04-16T00:59:42.283Z,87.78
2023-04-16T01:00:39.002Z,86.44
2023-04-16T01:01:36.276Z,85.27
2023-04-16T01:02:34.825Z,85.77
2023-04-16T01:03:37.871Z,85.40
2023-04-16T01:04:35.874Z,86.35
2023-04-16T01:05:32.711Z,84.44
2023-04-16T01:06:29.533Z,84.52
2023-04-16T01:07:26.270Z,83.83
2023-04-16T01:08:23.221Z,83.12
2023-04-16T01:09:20.150Z,84.22
2023-04-16T01:10:16.917Z,84.50
2023-04-16T01:11:15.518Z,85.63
2023-04-16T01:12:12.251Z,86.85
2023-04-16T01:13:09.060Z,87.58
2023-04-16T01:14:05.923Z,89.60
2023-04-16T01:15:03.402Z,91.00
2023-04-16T01:16:01.236Z,91.26
2023-04-16T01:16:58.056Z,90.29
2023-04-16T01:17:54.930Z,88.84
2023-04-16T01:18:51.712Z,90.21
2023-04-16T01:19:48.452Z,91.02
2023-04-16T01:20:46.946Z,91.34
2023-04-16T01:21:43.706Z,93.27
2023-04-16T01:22:40.626Z,92.32
2023-04-16T01:23:37.407Z,92.60
2023-04-16T01:24:35.088Z,93.74
2023-04-16T01:25:31.803Z,94.54
2023-04-16T01:26:28.544Z,94.39
2023-04-16T01:27:25.352Z,95.97
2023-04-16T01:28:23.191Z,95.26
2023-04-16T01:29:19.982Z,94.84
2023-04-16T01:30:16.752Z,95.24
2023-04-16T01:31:13.631Z,96.84
2023-04-16T01:32:10.596Z,96.90
2023-04-16T01:33:09.007Z,98.46
2023-04-16T01:34:06.136Z,96.19
2023-04-16T01:35:02.837Z,96.98
2023-04-16T01:35:59.574Z,96.69
2023-04-16T01:36:56.353Z,97.40
2023-04-16T01:37:53.258Z,96.06
2023-04-16T01:38:50.213Z,94.73
2023-04-16T01:39:47.028Z,95.48
2023-04-16T01:40:43.798Z,96.29
2023-04-16T01:41:40.858Z,97.77
2023-04-16T01:42:38.249Z,99.35
2023-04-16T01:43:35.189Z,100.00
2023-04-16T01:44:32.053Z,100.00
2023-04-16T01:45:28.908Z,100.00
2023-04-16T01:46:30.715Z,100.00
2023-04-16T01:47:27.628Z,100.00
2023-04-16T01:48:24.436Z,100.00
2023-04-16T01:49:21.207Z,100.00
2023-04-16T01:50:20.525Z,100.00
2023-04-16T01:51:17.367Z,100.00
2023-04-16T01:52:14.177Z,100.00
2023-04-16T01:53:10.940Z,100.00
2023-04-16T01:54:08.185Z,100.00
2023-04-16T01:55:05.279Z,100.00
2023-04-16T01:56:02.228Z,100.00
2023-04-16T01:56:59.012Z,100.00
2023-04-16T01:57:56.031Z,100.00
2023-04-16T01:58:53.525Z,100.00
2023-04-16T01:59:50.237Z,100.00
2023-04-16T02:00:47.089Z,100.00
2023-04-16T02:01:44.059Z,100.00
2023-04-16T02:02:41.136Z,100.00
2023-04-16T02:03:38.219Z,100.00
2023-04-16T02:04:35.210Z,100.00
2023-04-16T02:05:31.951Z,100.00
2023-04-16T02:06:28.675Z,100.00
2023-04-16T02:07:26.030Z,100.00
2023-04-16T02:08:23.282Z,100.00
2023-04-16T02:09:20.020Z,100.00
2023-04-16T02:10:16.746Z,100.00
2023-04-16T02:11:13.504Z,100.00
2023-04-16T02:12:11.869Z,100.00
2023-04-16T02:13:08.634Z,100.00
2023-04-16T02:14:05.435Z,100.00
2023-04-16T02:15:03.474Z,100.00
2023-04-16T02:16:00.436Z,100.00
2023-04-16T02:16:57.294Z,100.00
2023-04-16T02:17:56.940Z,100.00
2023-04-16T02:18:53.909Z,100.00
2023-04-16T02:19:50.854Z,100.00
2023-04-16T02:20:49.596Z,100.00
2023-04-16T02:21:46.436Z,100.00
2023-04-16T02:22:43.471Z,100.00
2023-04-16T02:23:41.414Z,100.00
2023-04-16T02:24:38.267Z,100.00
2023-04-16T02:25:48.110Z,100.00
2023-04-16T02:26:45.366Z,100.00
2023-04-16T02:27:42.101Z,100.00
2023-04-16T02:28:39.195Z,100.00
2023-04-16T02:29:35.972Z,100.00
2023-04-16T02:30:34.883Z,100.00
2023-04-16T02:31:31.841Z,100.00
2023-04-16T02:33:05.760Z,100.00
2023-04-16T02:34:03.035Z,100.00
2023-04-16T02:34:59.944Z,100.00
2023-04-16T02:35:56.643Z,100.00
2023-04-16T02:36:54.360Z,100.00
2023-04-16T02:37:51.135Z,100.00
2023-04-16T02:38:47.937Z,100.00
2023-04-16T02:39:45.136Z,100.00
2023-04-16T02:40:41.942Z,100.00
2023-04-16T02:41:38.676Z,100.00
2023-04-16T02:42:35.405Z,100.00
2023-04-16T02:43:32.180Z,100.00
2023-04-16T02:44:28.935Z,100.00
2023-04-16T02:45:25.891Z,100.00
2023-04-16T02:46:22.678Z,100.00
2023-04-16T02:47:19.558Z,100.00
2023-04-16T02:48:16.492Z,100.00
2023-04-16T02:49:13.431Z,100.00
2023-04-16T02:50:10.862Z,100.00
2023-04-16T02:51:08.016Z,100.00
2023-04-16T02:52:04.929Z,100.00
2023-04-16T02:53:01.749Z,100.00
2023-04-16T02:53:58.522Z,100.00
2023-04-16T02:54:55.373Z,100.00
2023-04-16T02:55:56.013Z,100.00
2023-04-16T02:56:52.810Z,100.00
2023-04-16T02:57:49.526Z,100.00
2023-04-16T02:58:46.225Z,100.00
2023-04-16T02:59:42.975Z,100.00
2023-04-16T03:00:39.721Z,100.00
2023-04-16T03:01:36.522Z,100.00
2023-04-16T03:02:33.456Z,100.00
2023-04-16T03:03:30.286Z,100.00
2023-04-16T03:04:27.063Z,100.00
2023-04-16T03:05:23.858Z,100.00
2023-04-16T03:06:20.641Z,100.00
2023-04-16T03:07:18.385Z,100.00
2023-04-16T03:08:15.154Z,100.00
2023-04-16T03:09:12.034Z,100.00
2023-04-16T03:10:09.374Z,100.00
2023-04-16T03:11:06.317Z,100.00
2023-04-16T03:12:03.298Z,100.00
2023-04-16T03:13:00.026Z,100.00
2023-04-16T03:13:56.790Z,100.00
2023-04-16T03:14:53.552Z,100.00
2023-04-16T03:15:50.374Z,100.00
2023-04-16T03:16:47.134Z,100.00
2023-04-16T03:17:44.020Z,100.00
2023-04-16T03:18:40.889Z,100.00
2023-04-16T03:19:37.815Z,100.00
2023-04-16T03:20:34.750Z,100.00
2023-04-16T03:21:31.787Z,100.00
2023-04-16T03:22:28.624Z,100.00
2023-04-16T03:23:25.516Z,100.00
2023-04-16T03:24:22.483Z,100.00
2023-04-16T03:25:19.283Z,100.00
2023-04-16T03:26:16.502Z,100.00
2023-04-16T03:27:13.311Z,100.00
2023-04-16T03:28:10.031Z,100.00
2023-04-16T03:29:06.911Z,100.00
2023-04-16T03:30:04.805Z,100.00
2023-04-16T03:31:01.712Z,100.00
2023-04-16T03:31:58.528Z,100.00
2023-04-16T03:32:55.660Z,100.00
2023-04-16T03:33:52.788Z,100.00
2023-04-16T03:34:49.586Z,100.00
2023-04-16T03:35:46.502Z,100.00
2023-04-16T03:36:43.236Z,100.00
2023-04-16T03:37:39.939Z,100.00
2023-04-16T03:38:36.774Z,100.00
2023-04-16T03:39:34.621Z,100.00
2023-04-16T03:40:32.007Z,100.00
2023-04-16T03:41:28.797Z,100.00
2023-04-16T03:42:25.893Z,100.00
2023-04-16T03:43:22.801Z,100.00
2023-04-16T03:44:19.554Z,100.00
2023-04-16T03:45:16.670Z,100.00
2023-04-16T03:46:13.535Z,100.00
2023-04-16T03:47:10.555Z,100.00
2023-04-16T03:48:07.312Z,100.00
2023-04-16T03:49:04.062Z,100.00
2023-04-16T03:50:00.886Z,100.00
2023-04-16T03:50:57.661Z,100.00
2023-04-16T03:51:54.554Z,100.00
2023-04-16T03:52:51.259Z,100.00
2023-04-16T03:53:48.023Z,100.00
2023-04-16T03:54:44.926Z,100.00
2023-04-16T03:55:42.300Z,100.00
2023-04-16T03:56:41.461Z,100.00
2023-04-16T03:57:38.255Z,100.00
2023-04-16T03:58:35.046Z,100.00
2023-04-16T03:59:31.837Z,100.00
2023-04-16T04:00:28.620Z,100.00
2023-04-16T04:01:25.358Z,100.00
2023-04-16T04:02:22.380Z,100.00
2023-04-16T04:03:19.453Z,100.00
2023-04-16T04:04:16.754Z,100.00
2023-04-16T04:05:13.729Z,100.00
2023-04-16T04:06:10.525Z,100.00
2023-04-16T04:07:07.307Z,100.00
2023-04-16T04:08:04.360Z,100.00
2023-04-16T04:09:01.103Z,100.00
2023-04-16T04:09:57.838Z,100.00
2023-04-16T04:10:54.580Z,100.00
2023-04-16T04:11:52.074Z,100.00
2023-04-16T04:12:48.804Z,100.00
2023-04-16T04:13:45.846Z,100.00
2023-04-16T04:14:42.651Z,100.00
2023-04-16T04:15:39.615Z,100.00
2023-04-16T04:16:36.447Z,100.00
2023-04-16T04:17:33.203Z,100.00
2023-04-16T04:18:30.046Z,100.00
2023-04-16T04:19:26.836Z,100.00
2023-04-16T04:20:24.265Z,100.00
2023-04-16T04:21:21.102Z,100.00
2023-04-16T04:22:17.921Z,100.00
2023-04-16T04:23:14.681Z,100.00
2023-04-16T04:24:11.368Z,100.00
2023-04-16T04:25:10.224Z,99.26
2023-04-16T04:26:07.525Z,96.51
2023-04-16T04:27:04.426Z,93.44
2023-04-16T04:28:01.218Z,92.42
2023-04-16T04:28:57.988Z,91.68
2023-04-16T04:29:54.676Z,92.62
2023-04-16T04:30:54.328Z,90.60
2023-04-16T04:31:51.435Z,91.64
2023-04-16T04:32:48.321Z,91.48
2023-04-16T04:33:45.147Z,93.55
2023-04-16T04:34:42.019Z,94.46
2023-04-16T04:35:44.019Z,95.94
2023-04-16T04:36:40.784Z,95.19
2023-04-16T04:37:37.535Z,95.40
2023-04-16T04:38:34.346Z,97.63
2023-04-16T04:39:31.112Z,95.85
2023-04-16T04:40:27.845Z,96.26
2023-04-16T04:41:24.706Z,98.05
2023-04-16T04:42:22.197Z,97.04
2023-04-16T04:43:19.969Z,98.47
2023-04-16T04:44:16.806Z,98.11
2023-04-16T04:45:13.588Z,98.12
2023-04-16T04:46:10.595Z,96.37
2023-04-16T04:47:07.477Z,96.95
2023-04-16T04:48:04.477Z,97.83
2023-04-16T04:49:01.277Z,99.24
2023-04-16T04:49:58.050Z,100.00
2023-04-16T04:50:54.851Z,100.00
2023-04-16T04:51:54.091Z,100.00
2023-04-16T04:52:50.987Z,100.00
2023-04-16T04:53:47.680Z,99.94
2023-04-16T04:54:44.439Z,97.66
2023-04-16T04:55:41.313Z,96.66
2023-04-16T04:56:38.192Z,95.68
2023-04-16T04:57:34.993Z,94.75
2023-04-16T04:58:31.708Z,94.81
2023-04-16T04:59:28.480Z,94.18
2023-04-16T05:00:25.260Z,95.20
2023-04-16T05:01:22.037Z,95.55
2023-04-16T05:02:19.364Z,95.03
2023-04-16T05:03:21.642Z,94.00
2023-04-16T05:04:18.575Z,95.00
2023-04-16T05:05:15.634Z,93.29
2023-04-16T05:06:12.565Z,94.73
2023-04-16T05:07:09.267Z,94.16
2023-04-16T05:08:06.589Z,94.54
2023-04-16T05:09:03.593Z,95.46
2023-04-16T05:10:00.859Z,95.56
2023-04-16T05:10:57.657Z,97.12
2023-04-16T05:11:54.375Z,99.81
2023-04-16T05:12:51.176Z,99.65
2023-04-16T05:13:47.952Z,100.00
2023-04-16T05:14:44.672Z,100.00
2023-04-16T05:15:41.537Z,100.00
2023-04-16T05:16:38.351Z,100.00
2023-04-16T05:17:35.721Z,100.00
2023-04-16T05:18:33.486Z,100.00
2023-04-16T05:19:30.370Z,100.00
2023-04-16T05:20:27.088Z,100.00
2023-04-16T05:21:24.732Z,100.00
2023-04-16T05:22:21.584Z,99.46
2023-04-16T05:23:18.321Z,100.00
2023-04-16T05:24:15.231Z,100.00
2023-04-16T05:25:12.206Z,100.00
2023-04-16T05:26:08.916Z,100.00
2023-04-16T05:27:05.637Z,100.00
2023-04-16T05:28:02.440Z,100.00
2023-04-16T05:28:59.114Z,100.00
2023-04-16T05:29:55.842Z,100.00
2023-04-16T05:30:52.618Z,100.00
2023-04-16T05:31:49.634Z,100.00
2023-04-16T05:32:46.389Z,100.00
2023-04-16T05:34:01.712Z,100.00
2023-04-16T05:34:58.561Z,99.87
2023-04-16T05:35:55.303Z,97.58
2023-04-16T05:36:54.904Z,97.47
2023-04-16T05:37:51.604Z,98.86
2023-04-16T05:38:48.573Z,98.40
2023-04-16T05:39:45.426Z,98.01
2023-04-16T05:40:42.126Z,95.17
2023-04-16T05:41:38.860Z,92.61
2023-04-16T05:42:35.651Z,93.28
2023-04-16T05:43:32.433Z,95.02
2023-04-16T05:44:29.212Z,96.41
2023-04-16T05:45:27.948Z,96.81
2023-04-16T05:46:24.976Z,95.12
2023-04-16T05:47:22.006Z,93.56
2023-04-16T05:48:20.168Z,93.42
2023-04-16T05:49:18.837Z,93.91
2023-04-16T05:50:15.823Z,94.23
2023-04-16T05:51:12.574Z,91.45
2023-04-16T05:52:10.044Z,91.73
2023-04-16T05:53:08.843Z,92.59
2023-04-16T05:54:08.667Z,93.42
2023-04-16T05:55:06.197Z,91.00
2023-04-16T05:56:03.110Z,91.74
2023-04-16T05:57:01.179Z,91.51
2023-04-16T05:57:58.188Z,94.34
2023-04-16T05:58:55.008Z,94.86
2023-04-16T05:59:51.753Z,93.82
2023-04-16T06:00:48.754Z,92.67
2023-04-16T06:01:45.724Z,94.49
2023-04-16T06:02:42.809Z,94.49
2023-04-16T06:03:39.804Z,94.29
2023-04-16T06:04:37.264Z,93.96
2023-04-16T06:05:34.054Z,94.24
2023-04-16T06:06:30.853Z,94.38
2023-04-16T06:07:27.560Z,92.86
2023-04-16T06:08:24.409Z,93.14
2023-04-16T06:09:21.265Z,94.40
2023-04-16T06:10:18.202Z,94.37
2023-04-16T06:11:15.066Z,93.00
2023-04-16T06:12:11.959Z,94.50
2023-04-16T06:13:08.691Z,95.57
2023-04-16T06:14:05.482Z,94.40
2023-04-16T06:15:02.253Z,91.75
2023-04-16T06:15:59.057Z,92.15
2023-04-16T06:16:56.409Z,90.44
2023-04-16T06:17:53.125Z,89.97
2023-04-16T06:18:49.882Z,89.96
2023-04-16T06:19:46.605Z,89.57
2023-04-16T06:20:43.550Z,90.75
2023-04-16T06:21:40.277Z,91.23
2023-04-16T06:22:37.326Z,91.06
2023-04-16T06:23:34.104Z,89.58
2023-04-16T06:24:30.850Z,91.19
2023-04-16T06:25:27.619Z,91.30
2023-04-16T06:26:24.384Z,90.59
2023-04-16T06:27:21.175Z,89.24
2023-04-16T06:28:17.967Z,90.96
2023-04-16T06:29:14.869Z,90.51
2023-04-16T06:30:13.601Z,89.58
2023-04-16T06:31:10.446Z,88.60
2023-04-16T06:32:08.069Z,88.39
2023-04-16T06:33:05.875Z,88.38
2023-04-16T06:34:02.687Z,90.15
2023-04-16T06:34:59.659Z,88.32
2023-04-16T06:35:56.784Z,85.81
2023-04-16T06:36:53.493Z,87.41
2023-04-16T06:37:50.462Z,86.84
2023-04-16T06:38:47.257Z,87.75
2023-04-16T06:39:44.029Z,85.94
2023-04-16T06:40:40.999Z,87.88
2023-04-16T06:41:37.918Z,87.39
2023-04-16T06:42:34.658Z,86.80
2023-04-16T06:43:33.510Z,86.75
2023-04-16T06:44:30.240Z,86.38
2023-04-16T06:45:27.111Z,86.45
2023-04-16T06:46:24.046Z,87.64
2023-04-16T06:47:21.194Z,86.75
2023-04-16T06:48:17.943Z,87.17
2023-04-16T06:49:14.694Z,85.57
2023-04-16T06:50:11.479Z,84.85
2023-04-16T06:51:08.521Z,84.41
2023-04-16T06:52:06.033Z,83.85
2023-04-16T06:53:03.739Z,82.59
2023-04-16T06:54:00.576Z,82.69
2023-04-16T06:54:57.436Z,82.74
2023-04-16T06:55:54.184Z,82.50
2023-04-16T06:56:51.033Z,82.61
2023-04-16T06:57:47.762Z,81.45
2023-04-16T06:58:44.455Z,80.10
2023-04-16T06:59:41.210Z,79.57
2023-04-16T07:00:38.047Z,80.19
2023-04-16T07:01:35.160Z,80.71
2023-04-16T07:02:32.132Z,80.68
2023-04-16T07:03:29.314Z,80.65
2023-04-16T07:04:26.454Z,80.34
2023-04-16T07:05:23.255Z,79.84
2023-04-16T07:06:20.004Z,77.95
2023-04-16T07:07:16.740Z,75.91
2023-04-16T07:08:13.529Z,75.60
2023-04-16T07:09:10.436Z,74.94
2023-04-16T07:10:08.259Z,75.23
2023-04-16T07:11:05.521Z,75.08
2023-04-16T07:12:02.413Z,76.17
2023-04-16T07:13:01.593Z,77.38
2023-04-16T07:13:59.045Z,78.06
2023-04-16T07:14:55.893Z,78.93
2023-04-16T07:15:52.674Z,79.16
2023-04-16T07:16:49.505Z,80.61
2023-04-16T07:17:46.337Z,81.55
2023-04-16T07:18:43.163Z,82.47
2023-04-16T07:19:39.904Z,82.66
2023-04-16T07:20:36.799Z,82.69
2023-04-16T07:21:33.595Z,83.26
2023-04-16T07:22:30.633Z,83.49
2023-04-16T07:23:27.905Z,81.17
2023-04-16T07:24:24.705Z,78.90
2023-04-16T07:25:21.507Z,78.48
2023-04-16T07:26:18.309Z,78.25
2023-04-16T07:27:15.123Z,76.17
2023-04-16T07:28:11.935Z,76.03
2023-04-16T07:29:08.973Z,76.83
2023-04-16T07:30:06.620Z,75.39
2023-04-16T07:31:03.677Z,74.07
2023-04-16T07:32:00.745Z,75.06
2023-04-16T07:32:58.117Z,76.72
2023-04-16T07:33:55.232Z,78.23
2023-04-16T07:34:52.070Z,78.91
2023-04-16T07:35:48.839Z,77.62
2023-04-16T07:36:45.695Z,78.17
2023-04-16T07:37:42.494Z,77.29
2023-04-16T07:38:39.332Z,76.55
2023-04-16T07:39:36.075Z,75.51
2023-04-16T07:40:33.474Z,74.89
2023-04-16T07:41:30.484Z,75.16
2023-04-16T07:42:28.177Z,74.31
2023-04-16T07:43:24.986Z,75.25
2023-04-16T07:44:21.808Z,75.08
2023-04-16T07:45:19.231Z,75.97
2023-04-16T07:46:16.270Z,76.50
2023-04-16T07:47:12.998Z,76.85
2023-04-16T07:48:09.749Z,76.22
2023-04-16T07:49:08.862Z,74.69
2023-04-16T07:50:06.567Z,74.47
2023-04-16T07:51:03.621Z,75.34
2023-04-16T07:52:00.516Z,73.83
2023-04-16T07:53:00.218Z,73.77
2023-04-16T07:53:57.008Z,71.94
2023-04-16T07:54:53.846Z,70.75
2023-04-16T07:55:50.945Z,70.55
2023-04-16T07:56:47.641Z,70.07
2023-04-16T07:57:44.456Z,69.33
2023-04-16T07:58:44.039Z,69.77
2023-04-16T07:59:40.883Z,69.32
2023-04-16T08:00:37.739Z,67.82
2023-04-16T08:01:34.679Z,67.10
2023-04-16T08:02:32.308Z,67.25
2023-04-16T08:03:31.794Z,70.71
2023-04-16T08:04:28.841Z,73.26
2023-04-16T08:05:25.717Z,71.71
2023-04-16T08:06:22.503Z,70.70
2023-04-16T08:07:19.254Z,70.16
2023-04-16T08:08:16.082Z,69.49
2023-04-16T08:09:12.815Z,70.75
2023-04-16T08:10:09.748Z,70.63
2023-04-16T08:11:06.566Z,69.32
2023-04-16T08:12:03.928Z,71.19
2023-04-16T08:13:01.714Z,69.82
2023-04-16T08:13:58.765Z,68.97
2023-04-16T08:14:55.611Z,67.36
2023-04-16T08:15:52.362Z,67.20
2023-04-16T08:16:49.707Z,66.89
2023-04-16T08:17:46.576Z,65.96
2023-04-16T08:18:43.375Z,66.65
2023-04-16T08:19:40.233Z,68.83
2023-04-16T08:20:37.018Z,68.09
2023-04-16T08:21:34.198Z,68.30
2023-04-16T08:22:31.024Z,68.90
2023-04-16T08:23:27.869Z,69.36
2023-04-16T08:24:24.632Z,67.74
2023-04-16T08:25:22.898Z,67.10
2023-04-16T08:26:19.936Z,66.58
2023-04-16T08:27:19.793Z,65.49
2023-04-16T08:28:17.162Z,63.46
2023-04-16T08:29:13.960Z,63.01
2023-04-16T08:30:10.920Z,63.94
2023-04-16T08:31:07.702Z,64.45
2023-04-16T08:32:04.643Z,65.11
2023-04-16T08:33:01.704Z,65.32
2023-04-16T08:33:58.517Z,66.17
2023-04-16T08:34:55.421Z,67.05
2023-04-16T08:35:52.158Z,66.46
2023-04-16T08:36:48.819Z,65.63
2023-04-16T08:37:45.638Z,65.93
2023-04-16T08:38:42.390Z,65.59
2023-04-16T08:39:39.192Z,65.65
2023-04-16T08:40:39.984Z,65.72
2023-04-16T08:41:40.828Z,64.97
2023-04-16T08:42:53.768Z,63.93
2023-04-16T08:43:54.417Z,63.66
2023-04-16T08:44:59.073Z,62.72
2023-04-16T08:45:57.051Z,63.07
2023-04-16T08:46:59.236Z,62.72
2023-04-16T08:47:56.292Z,62.58
2023-04-16T08:48:58.609Z,63.11
2023-04-16T08:49:59.340Z,63.90
2023-04-16T08:50:56.973Z,63.79
2023-04-16T08:51:55.919Z,63.64
2023-04-16T08:52:58.855Z,64.56
2023-04-16T08:54:02.993Z,64.62
2023-04-16T08:55:14.043Z,62.40
2023-04-16T08:56:12.719Z,61.44
2023-04-16T08:57:12.558Z,60.84
2023-04-16T08:58:32.248Z,60.05
2023-04-16T08:59:29.768Z,60.67
2023-04-16T09:00:28.424Z,61.41
2023-04-16T09:01:28.728Z,61.88
2023-04-16T09:02:27.161Z,60.27
2023-04-16T09:03:24.504Z,59.86
2023-04-16T09:04:22.746Z,58.29
2023-04-16T09:05:22.808Z,57.46
2023-04-16T09:06:19.783Z,56.82
2023-04-16T09:07:17.676Z,56.73
2023-04-16T09:08:14.579Z,56.78
2023-04-16T09:09:13.051Z,57.37
2023-04-16T09:10:10.715Z,58.02
2023-04-16T09:11:07.722Z,58.90
2023-04-16T09:12:06.266Z,58.97
2023-04-16T09:13:03.008Z,58.68
2023-04-16T09:14:01.082Z,58.75
2023-04-16T09:15:01.205Z,57.23
2023-04-16T09:15:58.543Z,56.82
2023-04-16T09:16:56.240Z,56.58
2023-04-16T09:17:53.689Z,56.89
2023-04-16T09:18:52.098Z,57.33
2023-04-16T09:19:49.013Z,57.70
2023-04-16T09:20:46.171Z,57.62
2023-04-16T09:21:47.659Z,56.47
2023-04-16T09:22:44.832Z,56.75
2023-04-16T09:23:42.150Z,55.57
2023-04-16T09:24:39.267Z,55.39
2023-04-16T09:25:37.240Z,55.96
2023-04-16T09:26:34.662Z,55.93
2023-04-16T09:27:31.968Z,56.54
2023-04-16T09:28:51.332Z,56.70
2023-04-16T09:29:49.716Z,57.80
2023-04-16T09:30:46.455Z,58.11
2023-04-16T09:32:03.028Z,58.82
2023-04-16T09:33:23.460Z,58.47
2023-04-16T09:34:21.032Z,57.95
2023-04-16T09:35:21.119Z,56.97
2023-04-16T09:36:23.617Z,56.34
2023-04-16T09:37:20.620Z,55.55
2023-04-16T09:38:17.547Z,55.68
2023-04-16T09:39:20.250Z,55.25
2023-04-16T09:40:24.799Z,54.66
2023-04-16T09:41:29.864Z,54.12
2023-04-16T09:42:29.821Z,54.09
2023-04-16T09:43:27.228Z,53.90
2023-04-16T09:44:35.583Z,53.99
2023-04-16T09:45:32.877Z,53.44
2023-04-16T09:46:30.486Z,53.80
2023-04-16T09:47:41.267Z,53.71
2023-04-16T09:48:38.363Z,53.75
2023-04-16T09:49:38.539Z,53.16
2023-04-16T09:50:35.283Z,53.45
2023-04-16T09:51:37.852Z,53.16
2023-04-16T09:52:38.146Z,53.28
2023-04-16T09:53:35.279Z,53.16
2023-04-16T09:54:32.013Z,53.98
2023-04-16T09:55:28.792Z,53.96
2023-04-16T09:56:30.410Z,53.82
2023-04-16T09:57:27.195Z,53.81
2023-04-16T09:58:27.416Z,54.20
2023-04-16T09:59:24.429Z,54.09
2023-04-16T10:00:23.524Z,53.44
2023-04-16T10:01:20.688Z,53.09
2023-04-16T10:02:17.516Z,52.79
2023-04-16T10:03:14.430Z,52.92
2023-04-16T10:04:11.497Z,52.32
2023-04-16T10:05:08.578Z,53.24
2023-04-16T10:06:15.967Z,52.41
2023-04-16T10:07:13.360Z,52.28
2023-04-16T10:08:14.464Z,52.41
2023-04-16T10:09:11.382Z,52.02
2023-04-16T10:10:08.828Z,51.95
2023-04-16T10:11:05.829Z,51.47
2023-04-16T10:12:02.868Z,51.37
2023-04-16T10:13:00.546Z,50.62
2023-04-16T10:13:57.231Z,49.78
2023-04-16T10:14:53.991Z,49.26
2023-04-16T10:15:51.199Z,49.36
2023-04-16T10:16:48.393Z,48.45
2023-04-16T10:17:45.880Z,48.06
2023-04-16T10:18:44.755Z,48.52
2023-04-16T10:19:42.383Z,48.17
2023-04-16T10:20:39.294Z,48.70
2023-04-16T10:21:36.296Z,49.75
2023-04-16T10:22:33.159Z,49.67
2023-04-16T10:23:29.977Z,49.44
2023-04-16T10:24:26.937Z,49.56
2023-04-16T10:25:25.308Z,49.83
2023-04-16T10:26:22.473Z,50.02
2023-04-16T10:27:19.877Z,48.98
2023-04-16T10:28:16.947Z,49.38
2023-04-16T10:29:13.697Z,49.43
2023-04-16T10:30:11.770Z,48.92
2023-04-16T10:31:09.794Z,48.72
2023-04-16T10:32:06.999Z,49.05
2023-04-16T10:33:06.140Z,48.95
2023-04-16T10:34:04.640Z,50.37
2023-04-16T10:35:01.430Z,50.48
2023-04-16T10:36:22.897Z,49.50
2023-04-16T10:37:19.668Z,49.44
2023-04-16T10:38:27.249Z,50.73
2023-04-16T10:39:27.209Z,50.27
2023-04-16T10:40:28.195Z,50.14
2023-04-16T10:41:26.987Z,50.41
2023-04-16T10:42:23.828Z,50.37
2023-04-16T10:43:21.040Z,50.16
2023-04-16T10:44:19.336Z,49.38
2023-04-16T10:45:16.781Z,49.45
2023-04-16T10:46:22.981Z,48.91
2023-04-16T10:47:19.827Z,48.48
2023-04-16T10:48:19.149Z,48.36
2023-04-16T10:49:21.335Z,48.41
2023-04-16T10:50:18.212Z,48.24
2023-04-16T10:51:36.461Z,47.79
2023-04-16T10:52:33.243Z,47.16
2023-04-16T10:53:30.008Z,46.74
2023-04-16T10:54:31.336Z,47.00
2023-04-16T10:55:28.134Z,47.82
2023-04-16T10:56:31.865Z,47.33
2023-04-16T10:57:29.808Z,47.46
2023-04-16T10:58:30.700Z,48.22
2023-04-16T10:59:32.192Z,49.12
2023-04-16T11:00:28.953Z,49.16
2023-04-16T11:01:36.178Z,49.36
2023-04-16T11:02:33.251Z,49.51
2023-04-16T11:03:32.163Z,49.27
2023-04-16T11:04:35.910Z,48.80
2023-04-16T11:05:53.060Z,49.35
2023-04-16T11:07:06.360Z,49.13
2023-04-16T11:08:14.220Z,48.49
2023-04-16T11:09:49.773Z,48.40
2023-04-16T11:10:47.182Z,48.57
2023-04-16T11:11:43.902Z,49.53
2023-04-16T11:12:44.914Z,48.93
2023-04-16T11:13:46.274Z,49.73
2023-04-16T11:14:43.594Z,48.96
2023-04-16T11:15:40.679Z,49.64
2023-04-16T11:16:40.760Z,48.93
2023-04-16T11:17:44.270Z,49.45
2023-04-16T11:18:48.821Z,49.23
2023-04-16T11:19:48.767Z,49.77
2023-04-16T11:20:45.775Z,49.78
2023-04-16T11:21:45.329Z,49.66
2023-04-16T11:22:43.264Z,49.53
2023-04-16T11:23:51.814Z,50.08
2023-04-16T11:24:55.147Z,49.89
2023-04-16T11:25:57.156Z,50.15
2023-04-16T11:26:53.941Z,49.95
2023-04-16T11:27:52.271Z,49.44
2023-04-16T11:28:49.032Z,49.81
2023-04-16T11:29:47.458Z,50.67
2023-04-16T11:30:44.349Z,51.27
2023-04-16T11:31:41.212Z,50.71
2023-04-16T11:32:39.571Z,50.83
2023-04-16T11:33:37.981Z,51.03
2023-04-16T11:34:35.169Z,50.42
2023-04-16T11:35:32.340Z,50.92
2023-04-16T11:36:42.318Z,50.39
2023-04-16T11:37:39.293Z,50.51
2023-04-16T11:38:37.765Z,50.61
2023-04-16T11:39:34.487Z,51.36
2023-04-16T11:40:31.728Z,51.18
2023-04-16T11:41:28.463Z,51.88
2023-04-16T11:42:27.041Z,52.03
2023-04-16T11:43:23.810Z,52.03
2023-04-16T11:44:26.185Z,51.91
2023-04-16T11:45:22.960Z,52.19
2023-04-16T11:46:27.323Z,51.91
2023-04-16T11:47:25.210Z,51.42
2023-04-16T11:48:22.372Z,51.61
2023-04-16T11:49:31.488Z,51.76
2023-04-16T11:50:28.943Z,51.44
2023-04-16T11:51:25.842Z,51.43
2023-04-16T11:52:32.885Z,51.78
2023-04-16T11:53:29.627Z,52.02
2023-04-16T11:54:26.414Z,51.95
2023-04-16T11:55:24.453Z,52.26
2023-04-16T11:56:28.564Z,51.86
2023-04-16T11:57:29.435Z,51.14
2023-04-16T11:58:26.217Z,51.50
2023-04-16T11:59:23.778Z,51.85
2023-04-16T12:00:23.108Z,51.50
2023-04-16T12:01:21.710Z,51.96
2023-04-16T12:02:33.853Z,51.23
2023-04-16T12:03:44.306Z,51.74
2023-04-16T12:04:41.204Z,52.28
2023-04-16T12:05:39.782Z,52.83
2023-04-16T12:06:36.574Z,52.34
2023-04-16T12:07:44.735Z,51.64
2023-04-16T12:08:42.857Z,52.14
2023-04-16T12:09:41.947Z,52.01
2023-04-16T12:10:54.055Z,51.26
2023-04-16T12:11:50.937Z,50.78
2023-04-16T12:12:47.685Z,51.07
2023-04-16T12:14:07.785Z,50.79
2023-04-16T12:15:05.121Z,50.91
2023-04-16T12:16:02.104Z,50.86
2023-04-16T12:17:21.039Z,51.32
2023-04-16T12:18:20.375Z,50.84
2023-04-16T12:19:18.376Z,50.40
2023-04-16T12:20:16.227Z,50.43
2023-04-16T12:21:13.006Z,50.52
2023-04-16T12:22:09.742Z,49.79
2023-04-16T12:23:06.839Z,50.05